sensor_id;sensor_type;location;lat;lon;timestamp;temperature;humidity
54846;DHT22;53889;50.084;8.646;2022-07-04T00:00:44;22.90;67.00
54846;DHT22;53889;50.084;8.646;2022-07-04T00:10:37;22.60;67.00
54846;DHT22;53889;50.084;8.646;2022-07-04T00:18:02;22.60;67.00
54846;DHT22;53889;50.084;8.646;2022-07-04T00:20:31;22.60;67.10
54846;DHT22;53889;50.084;8.646;2022-07-04T00:22:57;22.60;67.60
54846;DHT22;53889;50.084;8.646;2022-07-04T00:25:39;22.50;68.20
54846;DHT22;53889;50.084;8.646;2022-07-04T00:28:09;21.80;67.60
54846;DHT22;53889;50.084;8.646;2022-07-04T00:33:10;22.50;67.70
54846;DHT22;53889;50.084;8.646;2022-07-04T00:43:03;22.30;68.10
54846;DHT22;53889;50.084;8.646;2022-07-04T00:48:00;22.20;68.30
54846;DHT22;53889;50.084;8.646;2022-07-04T00:55:24;21.90;69.40
54846;DHT22;53889;50.084;8.646;2022-07-04T01:00:22;21.90;69.50
54846;DHT22;53889;50.084;8.646;2022-07-04T01:07:47;21.80;70.20
54846;DHT22;53889;50.084;8.646;2022-07-04T01:17:42;21.70;70.30
54846;DHT22;53889;50.084;8.646;2022-07-04T01:20:12;23.50;72.90
54846;DHT22;53889;50.084;8.646;2022-07-04T01:27:38;21.60;71.00
54846;DHT22;53889;50.084;8.646;2022-07-04T01:30:10;21.50;71.50
54846;DHT22;53889;50.084;8.646;2022-07-04T01:32:41;21.40;72.00
54846;DHT22;53889;50.084;8.646;2022-07-04T01:35:12;23.80;75.10
54846;DHT22;53889;50.084;8.646;2022-07-04T01:40:07;21.40;72.30
54846;DHT22;53889;50.084;8.646;2022-07-04T01:42:34;21.30;73.00
54846;DHT22;53889;50.084;8.646;2022-07-04T01:45:01;21.20;73.50
54846;DHT22;53889;50.084;8.646;2022-07-04T01:47:28;21.20;73.40
54846;DHT22;53889;50.084;8.646;2022-07-04T01:49:54;21.20;73.60
54846;DHT22;53889;50.084;8.646;2022-07-04T01:52:22;21.30;73.40
54846;DHT22;53889;50.084;8.646;2022-07-04T01:54:49;21.30;73.60
54846;DHT22;53889;50.084;8.646;2022-07-04T01:57:16;21.20;73.90
54846;DHT22;53889;50.084;8.646;2022-07-04T01:59:42;21.10;74.30
54846;DHT22;53889;50.084;8.646;2022-07-04T02:02:26;21.10;74.40
54846;DHT22;53889;50.084;8.646;2022-07-04T02:04:53;21.00;74.70
54846;DHT22;53889;50.084;8.646;2022-07-04T02:07:20;21.00;75.50
54846;DHT22;53889;50.084;8.646;2022-07-04T02:09:49;20.80;75.30
54846;DHT22;53889;50.084;8.646;2022-07-04T02:12:15;20.80;75.80
54846;DHT22;53889;50.084;8.646;2022-07-04T02:15:00;20.80;75.90
54846;DHT22;53889;50.084;8.646;2022-07-04T02:17:26;20.80;75.90
54846;DHT22;53889;50.084;8.646;2022-07-04T02:19:53;20.80;75.80
54846;DHT22;53889;50.084;8.646;2022-07-04T02:22:20;20.80;75.90
54846;DHT22;53889;50.084;8.646;2022-07-04T02:24:47;20.80;75.70
54846;DHT22;53889;50.084;8.646;2022-07-04T02:27:15;20.70;76.20
54846;DHT22;53889;50.084;8.646;2022-07-04T02:29:43;20.70;76.20
54846;DHT22;53889;50.084;8.646;2022-07-04T02:32:10;20.80;76.60
54846;DHT22;53889;50.084;8.646;2022-07-04T02:37:04;20.70;76.10
54846;DHT22;53889;50.084;8.646;2022-07-04T02:44:27;20.70;76.20
54846;DHT22;53889;50.084;8.646;2022-07-04T02:46:54;20.60;76.80
54846;DHT22;53889;50.084;8.646;2022-07-04T02:49:20;20.50;77.00
54846;DHT22;53889;50.084;8.646;2022-07-04T02:51:48;20.50;77.10
54846;DHT22;53889;50.084;8.646;2022-07-04T02:54:14;20.40;77.40
54846;DHT22;53889;50.084;8.646;2022-07-04T02:56:41;20.40;77.60
54846;DHT22;53889;50.084;8.646;2022-07-04T02:59:08;20.40;77.70
54846;DHT22;53889;50.084;8.646;2022-07-04T03:01:36;20.40;77.60
54846;DHT22;53889;50.084;8.646;2022-07-04T03:04:03;20.30;78.00
54846;DHT22;53889;50.084;8.646;2022-07-04T03:06:30;20.40;77.80
54846;DHT22;53889;50.084;8.646;2022-07-04T03:08:57;20.30;78.00
54846;DHT22;53889;50.084;8.646;2022-07-04T03:11:23;20.20;78.20
54846;DHT22;53889;50.084;8.646;2022-07-04T03:13:50;20.20;78.50
54846;DHT22;53889;50.084;8.646;2022-07-04T03:16:17;20.20;78.30
54846;DHT22;53889;50.084;8.646;2022-07-04T03:18:45;20.30;78.50
54846;DHT22;53889;50.084;8.646;2022-07-04T03:21:12;20.20;78.60
54846;DHT22;53889;50.084;8.646;2022-07-04T03:23:38;20.10;78.70
54846;DHT22;53889;50.084;8.646;2022-07-04T03:26:05;20.10;79.00
54846;DHT22;53889;50.084;8.646;2022-07-04T03:33:26;20.00;79.00
54846;DHT22;53889;50.084;8.646;2022-07-04T03:35:54;20.00;79.70
54846;DHT22;53889;50.084;8.646;2022-07-04T03:43:15;19.90;79.50
54846;DHT22;53889;50.084;8.646;2022-07-04T03:48:09;20.00;79.60
54846;DHT22;53889;50.084;8.646;2022-07-04T03:53:05;20.00;79.80
54846;DHT22;53889;50.084;8.646;2022-07-04T04:00:26;20.00;80.30
54846;DHT22;53889;50.084;8.646;2022-07-04T04:02:53;21.60;81.30
54846;DHT22;53889;50.084;8.646;2022-07-04T04:07:54;20.10;79.60
54846;DHT22;53889;50.084;8.646;2022-07-04T04:10:24;20.10;80.00
54846;DHT22;53889;50.084;8.646;2022-07-04T04:25:08;20.50;78.40
54846;DHT22;53889;50.084;8.646;2022-07-04T04:27:36;20.50;79.30
54846;DHT22;53889;50.084;8.646;2022-07-04T04:34:58;20.90;77.50
54846;DHT22;53889;50.084;8.646;2022-07-04T04:37:25;21.00;77.30
54846;DHT22;53889;50.084;8.646;2022-07-04T04:44:48;21.10;77.60
54846;DHT22;53889;50.084;8.646;2022-07-04T04:54:39;21.00;78.70
54846;DHT22;53889;50.084;8.646;2022-07-04T05:02:03;21.70;77.60
54846;DHT22;53889;50.084;8.646;2022-07-04T05:06:59;22.80;78.10
54846;DHT22;53889;50.084;8.646;2022-07-04T05:19:19;23.40;72.90
54846;DHT22;53889;50.084;8.646;2022-07-04T05:21:47;21.60;74.10
54846;DHT22;53889;50.084;8.646;2022-07-04T05:24:14;24.40;74.40
54846;DHT22;53889;50.084;8.646;2022-07-04T05:26:42;24.30;69.90
54846;DHT22;53889;50.084;8.646;2022-07-04T05:29:09;24.70;68.40
54846;DHT22;53889;50.084;8.646;2022-07-04T05:31:36;26.00;66.90
54846;DHT22;53889;50.084;8.646;2022-07-04T05:34:03;23.00;66.00
54846;DHT22;53889;50.084;8.646;2022-07-04T05:36:32;26.00;64.30
54846;DHT22;53889;50.084;8.646;2022-07-04T05:38:59;26.50;64.00
54846;DHT22;53889;50.084;8.646;2022-07-04T05:41:26;26.40;62.40
54846;DHT22;53889;50.084;8.646;2022-07-04T05:43:53;26.60;62.10
54846;DHT22;53889;50.084;8.646;2022-07-04T05:46:20;27.00;61.60
54846;DHT22;53889;50.084;8.646;2022-07-04T05:48:47;28.30;60.90
54846;DHT22;53889;50.084;8.646;2022-07-04T05:51:14;27.10;61.00
54846;DHT22;53889;50.084;8.646;2022-07-04T05:53:43;29.00;62.70
54846;DHT22;53889;50.084;8.646;2022-07-04T05:56:10;26.90;60.50
54846;DHT22;53889;50.084;8.646;2022-07-04T05:58:37;29.80;63.70
54846;DHT22;53889;50.084;8.646;2022-07-04T06:01:06;26.80;61.40
54846;DHT22;53889;50.084;8.646;2022-07-04T06:03:34;26.20;60.30
54846;DHT22;53889;50.084;8.646;2022-07-04T06:06:03;27.80;60.10
54846;DHT22;53889;50.084;8.646;2022-07-04T06:08:30;27.20;59.30
54846;DHT22;53889;50.084;8.646;2022-07-04T06:10:59;28.00;58.80
54846;DHT22;53889;50.084;8.646;2022-07-04T06:13:26;28.60;57.60
54846;DHT22;53889;50.084;8.646;2022-07-04T06:15:54;28.60;56.00
54846;DHT22;53889;50.084;8.646;2022-07-04T06:18:21;29.30;56.80
54846;DHT22;53889;50.084;8.646;2022-07-04T06:20:49;28.10;55.70
54846;DHT22;53889;50.084;8.646;2022-07-04T06:23:17;28.00;56.90
54846;DHT22;53889;50.084;8.646;2022-07-04T06:25:44;25.60;54.70
54846;DHT22;53889;50.084;8.646;2022-07-04T06:28:13;29.80;56.80
54846;DHT22;53889;50.084;8.646;2022-07-04T06:30:40;28.30;55.80
54846;DHT22;53889;50.084;8.646;2022-07-04T06:33:25;28.60;54.50
54846;DHT22;53889;50.084;8.646;2022-07-04T06:35:53;28.00;54.30
54846;DHT22;53889;50.084;8.646;2022-07-04T06:38:21;29.20;54.00
54846;DHT22;53889;50.084;8.646;2022-07-04T06:40:50;29.20;53.20
54846;DHT22;53889;50.084;8.646;2022-07-04T06:43:18;29.40;53.00
54846;DHT22;53889;50.084;8.646;2022-07-04T06:45:45;29.00;53.20
54846;DHT22;53889;50.084;8.646;2022-07-04T06:48:12;29.40;52.60
54846;DHT22;53889;50.084;8.646;2022-07-04T06:50:39;29.60;52.30
54846;DHT22;53889;50.084;8.646;2022-07-04T06:53:07;29.80;52.10
54846;DHT22;53889;50.084;8.646;2022-07-04T06:55:34;32.10;53.20
54846;DHT22;53889;50.084;8.646;2022-07-04T06:58:01;33.50;53.50
54846;DHT22;53889;50.084;8.646;2022-07-04T07:00:30;29.90;51.50
54846;DHT22;53889;50.084;8.646;2022-07-04T07:02:57;30.30;50.70
54846;DHT22;53889;50.084;8.646;2022-07-04T07:05:25;31.20;50.70
54846;DHT22;53889;50.084;8.646;2022-07-04T07:07:52;30.30;50.40
54846;DHT22;53889;50.084;8.646;2022-07-04T07:10:19;30.30;50.70
54846;DHT22;53889;50.084;8.646;2022-07-04T07:12:46;30.60;50.00
54846;DHT22;53889;50.084;8.646;2022-07-04T07:15:13;30.70;49.30
54846;DHT22;53889;50.084;8.646;2022-07-04T07:17:41;30.80;49.90
54846;DHT22;53889;50.084;8.646;2022-07-04T07:20:09;31.00;50.00
54846;DHT22;53889;50.084;8.646;2022-07-04T07:22:36;30.70;49.00
54846;DHT22;53889;50.084;8.646;2022-07-04T07:25:03;29.90;50.40
54846;DHT22;53889;50.084;8.646;2022-07-04T07:27:30;29.90;50.80
54846;DHT22;53889;50.084;8.646;2022-07-04T07:29:57;29.50;51.00
54846;DHT22;53889;50.084;8.646;2022-07-04T07:32:24;29.90;51.20
54846;DHT22;53889;50.084;8.646;2022-07-04T07:34:52;30.40;49.00
54846;DHT22;53889;50.084;8.646;2022-07-04T07:37:19;30.30;50.00
54846;DHT22;53889;50.084;8.646;2022-07-04T07:39:47;30.80;50.30
54846;DHT22;53889;50.084;8.646;2022-07-04T07:42:14;31.50;49.30
54846;DHT22;53889;50.084;8.646;2022-07-04T07:44:41;31.70;48.90
54846;DHT22;53889;50.084;8.646;2022-07-04T07:47:11;30.50;49.00
54846;DHT22;53889;50.084;8.646;2022-07-04T07:49:38;31.30;48.90
54846;DHT22;53889;50.084;8.646;2022-07-04T07:52:08;32.30;47.60
54846;DHT22;53889;50.084;8.646;2022-07-04T07:54:35;32.60;49.60
54846;DHT22;53889;50.084;8.646;2022-07-04T07:57:03;30.70;48.90
54846;DHT22;53889;50.084;8.646;2022-07-04T07:59:30;30.60;49.40
54846;DHT22;53889;50.084;8.646;2022-07-04T08:01:57;30.60;49.50
54846;DHT22;53889;50.084;8.646;2022-07-04T08:04:25;32.50;50.60
54846;DHT22;53889;50.084;8.646;2022-07-04T08:07:01;31.90;48.20
54846;DHT22;53889;50.084;8.646;2022-07-04T08:09:30;32.70;47.60
54846;DHT22;53889;50.084;8.646;2022-07-04T08:11:59;34.00;49.20
54846;DHT22;53889;50.084;8.646;2022-07-04T08:14:27;30.10;48.90
54846;DHT22;53889;50.084;8.646;2022-07-04T08:16:56;29.50;49.50
54846;DHT22;53889;50.084;8.646;2022-07-04T08:19:23;32.60;53.20
54846;DHT22;53889;50.084;8.646;2022-07-04T08:21:51;29.30;51.70
54846;DHT22;53889;50.084;8.646;2022-07-04T08:24:19;29.70;50.60
54846;DHT22;53889;50.084;8.646;2022-07-04T08:26:47;30.40;50.50
54846;DHT22;53889;50.084;8.646;2022-07-04T08:29:14;30.70;49.90
54846;DHT22;53889;50.084;8.646;2022-07-04T08:31:42;33.10;53.50
54846;DHT22;53889;50.084;8.646;2022-07-04T08:39:07;29.60;50.60
54846;DHT22;53889;50.084;8.646;2022-07-04T08:41:38;29.60;51.60
54846;DHT22;53889;50.084;8.646;2022-07-04T08:44:09;30.90;48.90
54846;DHT22;53889;50.084;8.646;2022-07-04T08:46:39;31.30;51.00
54846;DHT22;53889;50.084;8.646;2022-07-04T08:49:14;31.50;48.30
54846;DHT22;53889;50.084;8.646;2022-07-04T08:51:49;31.70;48.60
54846;DHT22;53889;50.084;8.646;2022-07-04T08:54:18;32.10;50.20
54846;DHT22;53889;50.084;8.646;2022-07-04T08:57:03;31.20;49.10
54846;DHT22;53889;50.084;8.646;2022-07-04T08:59:50;32.10;46.80
54846;DHT22;53889;50.084;8.646;2022-07-04T09:02:20;31.80;46.10
54846;DHT22;53889;50.084;8.646;2022-07-04T09:04:49;31.10;46.50
54846;DHT22;53889;50.084;8.646;2022-07-04T09:07:16;30.90;46.80
54846;DHT22;53889;50.084;8.646;2022-07-04T09:09:44;30.50;47.10
54846;DHT22;53889;50.084;8.646;2022-07-04T09:12:12;31.00;46.70
54846;DHT22;53889;50.084;8.646;2022-07-04T09:17:08;30.50;46.50
54846;DHT22;53889;50.084;8.646;2022-07-04T09:19:35;34.20;49.30
54846;DHT22;53889;50.084;8.646;2022-07-04T09:22:17;33.00;45.90
54846;DHT22;53889;50.084;8.646;2022-07-04T09:24:46;33.40;44.20
54846;DHT22;53889;50.084;8.646;2022-07-04T09:27:13;34.20;43.50
54846;DHT22;53889;50.084;8.646;2022-07-04T09:29:55;34.10;43.50
54846;DHT22;53889;50.084;8.646;2022-07-04T09:32:33;33.30;44.30
54846;DHT22;53889;50.084;8.646;2022-07-04T09:35:02;32.60;44.70
54846;DHT22;53889;50.084;8.646;2022-07-04T09:37:40;31.90;45.20
54846;DHT22;53889;50.084;8.646;2022-07-04T09:40:20;31.70;45.40
54846;DHT22;53889;50.084;8.646;2022-07-04T09:42:47;31.70;45.40
54846;DHT22;53889;50.084;8.646;2022-07-04T09:45:14;32.30;45.00
54846;DHT22;53889;50.084;8.646;2022-07-04T09:47:43;32.90;44.70
54846;DHT22;53889;50.084;8.646;2022-07-04T09:50:12;32.60;44.70
54846;DHT22;53889;50.084;8.646;2022-07-04T09:52:48;31.80;45.10
54846;DHT22;53889;50.084;8.646;2022-07-04T09:55:23;30.60;46.70
54846;DHT22;53889;50.084;8.646;2022-07-04T09:57:51;30.50;46.90
54846;DHT22;53889;50.084;8.646;2022-07-04T10:00:21;30.70;47.00
54846;DHT22;53889;50.084;8.646;2022-07-04T10:02:48;31.60;46.00
54846;DHT22;53889;50.084;8.646;2022-07-04T10:05:23;32.20;44.80
54846;DHT22;53889;50.084;8.646;2022-07-04T10:07:53;31.70;45.10
54846;DHT22;53889;50.084;8.646;2022-07-04T10:10:29;31.90;45.00
54846;DHT22;53889;50.084;8.646;2022-07-04T10:12:57;33.00;43.70
54846;DHT22;53889;50.084;8.646;2022-07-04T10:15:24;32.60;42.70
54846;DHT22;53889;50.084;8.646;2022-07-04T10:17:51;32.30;43.10
54846;DHT22;53889;50.084;8.646;2022-07-04T10:20:18;32.20;43.50
54846;DHT22;53889;50.084;8.646;2022-07-04T10:22:45;32.80;43.10
54846;DHT22;53889;50.084;8.646;2022-07-04T10:25:13;33.20;42.70
54846;DHT22;53889;50.084;8.646;2022-07-04T10:27:40;33.40;42.70
54846;DHT22;53889;50.084;8.646;2022-07-04T10:30:11;33.90;42.60
54846;DHT22;53889;50.084;8.646;2022-07-04T10:32:39;34.30;41.00
54846;DHT22;53889;50.084;8.646;2022-07-04T10:35:09;34.40;40.60
54846;DHT22;53889;50.084;8.646;2022-07-04T10:37:57;33.00;41.70
54846;DHT22;53889;50.084;8.646;2022-07-04T10:40:42;33.80;41.20
54846;DHT22;53889;50.084;8.646;2022-07-04T10:46:32;35.60;40.20
54846;DHT22;53889;50.084;8.646;2022-07-04T10:49:00;34.70;40.50
54846;DHT22;53889;50.084;8.646;2022-07-04T10:51:33;33.00;41.60
54846;DHT22;53889;50.084;8.646;2022-07-04T10:54:02;32.10;43.10
54846;DHT22;53889;50.084;8.646;2022-07-04T10:56:37;32.70;42.60
54846;DHT22;53889;50.084;8.646;2022-07-04T10:59:09;32.30;42.60
54846;DHT22;53889;50.084;8.646;2022-07-04T11:01:36;32.30;42.30
54846;DHT22;53889;50.084;8.646;2022-07-04T11:04:03;32.60;42.60
54846;DHT22;53889;50.084;8.646;2022-07-04T11:06:51;33.30;41.70
54846;DHT22;53889;50.084;8.646;2022-07-04T11:09:23;33.60;41.60
54846;DHT22;53889;50.084;8.646;2022-07-04T11:11:55;33.70;41.40
54846;DHT22;53889;50.084;8.646;2022-07-04T11:14:34;34.50;41.00
54846;DHT22;53889;50.084;8.646;2022-07-04T11:17:02;33.50;41.60
54846;DHT22;53889;50.084;8.646;2022-07-04T11:19:28;33.00;42.00
54846;DHT22;53889;50.084;8.646;2022-07-04T11:21:55;32.80;42.60
54846;DHT22;53889;50.084;8.646;2022-07-04T11:24:22;33.50;42.20
54846;DHT22;53889;50.084;8.646;2022-07-04T11:26:51;33.80;41.40
54846;DHT22;53889;50.084;8.646;2022-07-04T11:29:18;33.40;41.90
54846;DHT22;53889;50.084;8.646;2022-07-04T11:31:46;32.10;42.70
54846;DHT22;53889;50.084;8.646;2022-07-04T11:34:14;31.80;42.70
54846;DHT22;53889;50.084;8.646;2022-07-04T11:36:42;32.00;42.90
54846;DHT22;53889;50.084;8.646;2022-07-04T11:39:11;32.10;42.40
54846;DHT22;53889;50.084;8.646;2022-07-04T11:41:40;31.80;42.20
54846;DHT22;53889;50.084;8.646;2022-07-04T11:44:29;32.30;41.80
54846;DHT22;53889;50.084;8.646;2022-07-04T11:47:13;32.90;41.30
54846;DHT22;53889;50.084;8.646;2022-07-04T11:49:43;32.60;41.00
54846;DHT22;53889;50.084;8.646;2022-07-04T11:52:10;31.60;42.30
54846;DHT22;53889;50.084;8.646;2022-07-04T11:54:39;31.80;41.80
54846;DHT22;53889;50.084;8.646;2022-07-04T11:57:14;32.60;41.40
54846;DHT22;53889;50.084;8.646;2022-07-04T11:59:43;33.50;40.30
54846;DHT22;53889;50.084;8.646;2022-07-04T12:02:14;33.10;40.20
54846;DHT22;53889;50.084;8.646;2022-07-04T12:04:42;33.50;39.80
54846;DHT22;53889;50.084;8.646;2022-07-04T12:07:11;33.50;39.60
54846;DHT22;53889;50.084;8.646;2022-07-04T12:09:38;33.80;39.70
54846;DHT22;53889;50.084;8.646;2022-07-04T12:12:06;34.40;39.20
54846;DHT22;53889;50.084;8.646;2022-07-04T12:14:33;34.70;39.00
54846;DHT22;53889;50.084;8.646;2022-07-04T12:17:12;33.50;40.10
54846;DHT22;53889;50.084;8.646;2022-07-04T12:19:53;34.20;39.20
54846;DHT22;53889;50.084;8.646;2022-07-04T12:22:29;35.10;38.50
54846;DHT22;53889;50.084;8.646;2022-07-04T12:24:56;34.30;38.60
54846;DHT22;53889;50.084;8.646;2022-07-04T12:27:24;33.80;39.10
54846;DHT22;53889;50.084;8.646;2022-07-04T12:29:52;33.90;38.80
54846;DHT22;53889;50.084;8.646;2022-07-04T12:32:21;34.60;37.90
54846;DHT22;53889;50.084;8.646;2022-07-04T12:34:48;35.00;38.10
54846;DHT22;53889;50.084;8.646;2022-07-04T12:37:16;35.50;37.00
54846;DHT22;53889;50.084;8.646;2022-07-04T12:39:44;35.00;37.40
54846;DHT22;53889;50.084;8.646;2022-07-04T12:42:13;34.80;37.80
54846;DHT22;53889;50.084;8.646;2022-07-04T12:44:40;34.30;37.60
54846;DHT22;53889;50.084;8.646;2022-07-04T12:47:08;34.30;37.10
54846;DHT22;53889;50.084;8.646;2022-07-04T12:49:41;34.30;37.50
54846;DHT22;53889;50.084;8.646;2022-07-04T12:52:10;34.40;37.80
54846;DHT22;53889;50.084;8.646;2022-07-04T12:54:37;34.30;37.80
54846;DHT22;53889;50.084;8.646;2022-07-04T12:57:07;33.50;38.80
54846;DHT22;53889;50.084;8.646;2022-07-04T12:59:35;32.30;39.30
54846;DHT22;53889;50.084;8.646;2022-07-04T13:02:02;33.30;40.80
54846;DHT22;53889;50.084;8.646;2022-07-04T13:04:29;32.60;39.30
54846;DHT22;53889;50.084;8.646;2022-07-04T13:07:00;32.10;39.90
54846;DHT22;53889;50.084;8.646;2022-07-04T13:09:37;32.20;39.70
54846;DHT22;53889;50.084;8.646;2022-07-04T13:12:04;31.30;40.00
54846;DHT22;53889;50.084;8.646;2022-07-04T13:14:48;31.20;40.50
54846;DHT22;53889;50.084;8.646;2022-07-04T13:17:15;31.30;40.20
54846;DHT22;53889;50.084;8.646;2022-07-04T13:19:42;31.30;40.60
54846;DHT22;53889;50.084;8.646;2022-07-04T13:22:10;31.50;40.50
54846;DHT22;53889;50.084;8.646;2022-07-04T13:24:37;30.90;41.00
54846;DHT22;53889;50.084;8.646;2022-07-04T13:27:04;31.50;40.80
54846;DHT22;53889;50.084;8.646;2022-07-04T13:29:31;31.40;40.50
54846;DHT22;53889;50.084;8.646;2022-07-04T13:31:58;31.30;41.00
54846;DHT22;53889;50.084;8.646;2022-07-04T13:34:24;31.10;41.50
54846;DHT22;53889;50.084;8.646;2022-07-04T13:36:51;30.60;41.20
54846;DHT22;53889;50.084;8.646;2022-07-04T13:39:21;30.40;41.20
54846;DHT22;53889;50.084;8.646;2022-07-04T13:41:48;30.10;41.80
54846;DHT22;53889;50.084;8.646;2022-07-04T13:44:15;29.80;42.40
54846;DHT22;53889;50.084;8.646;2022-07-04T13:46:42;29.40;42.60
54846;DHT22;53889;50.084;8.646;2022-07-04T13:49:10;29.30;42.50
54846;DHT22;53889;50.084;8.646;2022-07-04T13:51:37;29.60;42.90
54846;DHT22;53889;50.084;8.646;2022-07-04T13:54:04;30.00;42.60
54846;DHT22;53889;50.084;8.646;2022-07-04T13:56:32;30.00;42.60
54846;DHT22;53889;50.084;8.646;2022-07-04T13:58:59;30.00;42.30
54846;DHT22;53889;50.084;8.646;2022-07-04T14:01:26;30.30;42.10
54846;DHT22;53889;50.084;8.646;2022-07-04T14:03:53;30.40;41.80
54846;DHT22;53889;50.084;8.646;2022-07-04T14:06:19;30.00;41.90
54846;DHT22;53889;50.084;8.646;2022-07-04T14:08:46;29.70;42.70
54846;DHT22;53889;50.084;8.646;2022-07-04T14:11:13;29.20;43.00
54846;DHT22;53889;50.084;8.646;2022-07-04T14:13:41;29.10;42.90
54846;DHT22;53889;50.084;8.646;2022-07-04T14:16:08;29.30;42.70
54846;DHT22;53889;50.084;8.646;2022-07-04T14:18:35;29.60;42.30
54846;DHT22;53889;50.084;8.646;2022-07-04T14:21:02;29.50;41.80
54846;DHT22;53889;50.084;8.646;2022-07-04T14:23:28;29.60;42.50
54846;DHT22;53889;50.084;8.646;2022-07-04T14:26:08;29.30;41.60
54846;DHT22;53889;50.084;8.646;2022-07-04T14:28:36;29.10;42.40
54846;DHT22;53889;50.084;8.646;2022-07-04T14:31:05;29.20;42.70
54846;DHT22;53889;50.084;8.646;2022-07-04T14:33:32;29.20;42.50
54846;DHT22;53889;50.084;8.646;2022-07-04T14:35:59;29.00;42.80
54846;DHT22;53889;50.084;8.646;2022-07-04T14:38:26;29.10;42.60
54846;DHT22;53889;50.084;8.646;2022-07-04T14:40:53;29.30;42.50
54846;DHT22;53889;50.084;8.646;2022-07-04T14:43:20;29.10;42.70
54846;DHT22;53889;50.084;8.646;2022-07-04T14:45:47;28.90;42.90
54846;DHT22;53889;50.084;8.646;2022-07-04T14:48:15;29.10;42.70
54846;DHT22;53889;50.084;8.646;2022-07-04T14:50:42;29.00;42.50
54846;DHT22;53889;50.084;8.646;2022-07-04T14:53:09;29.30;42.60
54846;DHT22;53889;50.084;8.646;2022-07-04T14:55:35;29.30;41.90
54846;DHT22;53889;50.084;8.646;2022-07-04T14:58:02;29.20;41.90
54846;DHT22;53889;50.084;8.646;2022-07-04T15:00:29;29.20;41.50
54846;DHT22;53889;50.084;8.646;2022-07-04T15:02:56;29.10;42.00
54846;DHT22;53889;50.084;8.646;2022-07-04T15:05:24;29.50;42.30
54846;DHT22;53889;50.084;8.646;2022-07-04T15:07:50;29.10;42.30
54846;DHT22;53889;50.084;8.646;2022-07-04T15:10:19;29.00;42.80
54846;DHT22;53889;50.084;8.646;2022-07-04T15:12:46;29.00;42.40
54846;DHT22;53889;50.084;8.646;2022-07-04T15:15:12;29.00;42.30
54846;DHT22;53889;50.084;8.646;2022-07-04T15:17:39;29.00;42.80
54846;DHT22;53889;50.084;8.646;2022-07-04T15:20:08;29.10;42.50
54846;DHT22;53889;50.084;8.646;2022-07-04T15:22:54;29.00;42.50
54846;DHT22;53889;50.084;8.646;2022-07-04T15:25:38;28.80;43.10
54846;DHT22;53889;50.084;8.646;2022-07-04T15:28:05;28.90;43.60
54846;DHT22;53889;50.084;8.646;2022-07-04T15:30:31;28.80;43.20
54846;DHT22;53889;50.084;8.646;2022-07-04T15:32:58;28.90;43.00
54846;DHT22;53889;50.084;8.646;2022-07-04T15:35:25;28.70;42.90
54846;DHT22;53889;50.084;8.646;2022-07-04T15:37:52;29.70;44.20
54846;DHT22;53889;50.084;8.646;2022-07-04T15:40:20;28.70;42.90
54846;DHT22;53889;50.084;8.646;2022-07-04T15:42:46;28.60;43.10
54846;DHT22;53889;50.084;8.646;2022-07-04T15:45:13;28.80;43.40
54846;DHT22;53889;50.084;8.646;2022-07-04T15:47:40;29.00;43.70
54846;DHT22;53889;50.084;8.646;2022-07-04T15:50:07;28.60;43.60
54846;DHT22;53889;50.084;8.646;2022-07-04T15:52:34;28.60;42.70
54846;DHT22;53889;50.084;8.646;2022-07-04T15:55:01;28.50;43.30
54846;DHT22;53889;50.084;8.646;2022-07-04T15:57:29;28.50;43.70
54846;DHT22;53889;50.084;8.646;2022-07-04T15:59:56;28.30;43.80
54846;DHT22;53889;50.084;8.646;2022-07-04T16:02:22;28.50;43.30
54846;DHT22;53889;50.084;8.646;2022-07-04T16:04:49;28.60;43.50
54846;DHT22;53889;50.084;8.646;2022-07-04T16:07:16;28.70;43.40
54846;DHT22;53889;50.084;8.646;2022-07-04T16:09:44;28.60;42.70
54846;DHT22;53889;50.084;8.646;2022-07-04T16:12:11;28.70;43.00
54846;DHT22;53889;50.084;8.646;2022-07-04T16:14:39;28.70;43.00
54846;DHT22;53889;50.084;8.646;2022-07-04T16:17:06;28.50;43.40
54846;DHT22;53889;50.084;8.646;2022-07-04T16:19:33;28.50;43.40
54846;DHT22;53889;50.084;8.646;2022-07-04T16:21:59;28.30;43.10
54846;DHT22;53889;50.084;8.646;2022-07-04T16:24:26;28.20;43.70
54846;DHT22;53889;50.084;8.646;2022-07-04T16:26:53;28.30;43.90
54846;DHT22;53889;50.084;8.646;2022-07-04T16:29:19;28.20;43.50
54846;DHT22;53889;50.084;8.646;2022-07-04T16:31:47;28.90;44.40
54846;DHT22;53889;50.084;8.646;2022-07-04T16:34:14;28.20;43.20
54846;DHT22;53889;50.084;8.646;2022-07-04T16:36:41;28.30;43.50
54846;DHT22;53889;50.084;8.646;2022-07-04T16:39:08;28.50;43.60
54846;DHT22;53889;50.084;8.646;2022-07-04T16:41:35;28.50;43.70
54846;DHT22;53889;50.084;8.646;2022-07-04T16:44:02;28.40;43.80
54846;DHT22;53889;50.084;8.646;2022-07-04T16:46:29;28.50;44.00
54846;DHT22;53889;50.084;8.646;2022-07-04T16:48:57;28.50;43.90
54846;DHT22;53889;50.084;8.646;2022-07-04T16:51:23;28.50;43.90
54846;DHT22;53889;50.084;8.646;2022-07-04T16:53:50;28.50;44.10
54846;DHT22;53889;50.084;8.646;2022-07-04T16:56:17;28.40;43.60
54846;DHT22;53889;50.084;8.646;2022-07-04T16:58:44;28.30;43.70
54846;DHT22;53889;50.084;8.646;2022-07-04T17:01:10;28.30;43.80
54846;DHT22;53889;50.084;8.646;2022-07-04T17:03:37;28.30;43.90
54846;DHT22;53889;50.084;8.646;2022-07-04T17:06:05;28.10;43.80
54846;DHT22;53889;50.084;8.646;2022-07-04T17:08:32;28.00;44.60
54846;DHT22;53889;50.084;8.646;2022-07-04T17:11:04;28.00;44.30
54846;DHT22;53889;50.084;8.646;2022-07-04T17:13:31;28.10;44.40
54846;DHT22;53889;50.084;8.646;2022-07-04T17:15:58;28.20;44.60
54846;DHT22;53889;50.084;8.646;2022-07-04T17:18:25;28.10;44.00
54846;DHT22;53889;50.084;8.646;2022-07-04T17:20:52;27.90;44.30
54846;DHT22;53889;50.084;8.646;2022-07-04T17:23:21;28.10;44.70
54846;DHT22;53889;50.084;8.646;2022-07-04T17:25:49;27.80;44.00
54846;DHT22;53889;50.084;8.646;2022-07-04T17:28:16;28.10;44.40
54846;DHT22;53889;50.084;8.646;2022-07-04T17:30:44;28.00;44.50
54846;DHT22;53889;50.084;8.646;2022-07-04T17:33:11;28.10;44.80
54846;DHT22;53889;50.084;8.646;2022-07-04T17:35:38;27.80;44.60
54846;DHT22;53889;50.084;8.646;2022-07-04T17:38:05;27.60;44.70
54846;DHT22;53889;50.084;8.646;2022-07-04T17:40:33;27.50;44.80
54846;DHT22;53889;50.084;8.646;2022-07-04T17:43:01;27.30;45.30
54846;DHT22;53889;50.084;8.646;2022-07-04T17:45:28;27.20;45.50
54846;DHT22;53889;50.084;8.646;2022-07-04T17:47:55;27.00;45.40
54846;DHT22;53889;50.084;8.646;2022-07-04T17:50:23;27.00;45.80
54846;DHT22;53889;50.084;8.646;2022-07-04T17:52:49;27.60;46.10
54846;DHT22;53889;50.084;8.646;2022-07-04T17:55:16;27.00;45.90
54846;DHT22;53889;50.084;8.646;2022-07-04T17:57:45;26.90;45.80